sensor_id;sensor_type;location;lat;lon;timestamp;P1;durP1;ratioP1;P2;durP2;ratioP2
23258;SDS011;11798;51.528;7.240;2023-03-22T00:00:52;10.83;;;6.10;;
23258;SDS011;11798;51.528;7.240;2023-03-22T00:03:19;9.70;;;6.07;;
23258;SDS011;11798;51.528;7.240;2023-03-22T00:05:45;8.57;;;5.60;;
23258;SDS011;11798;51.528;7.240;2023-03-22T00:08:11;8.63;;;5.73;;
23258;SDS011;11798;51.528;7.240;2023-03-22T00:10:38;11.07;;;6.10;;
23258;SDS011;11798;51.528;7.240;2023-03-22T00:13:05;7.07;;;5.67;;
23258;SDS011;11798;51.528;7.240;2023-03-22T00:15:32;10.03;;;6.00;;
23258;SDS011;11798;51.528;7.240;2023-03-22T00:17:58;8.80;;;5.83;;
23258;SDS011;11798;51.528;7.240;2023-03-22T00:20:25;8.50;;;6.37;;
23258;SDS011;11798;51.528;7.240;2023-03-22T00:22:54;8.93;;;6.07;;
23258;SDS011;11798;51.528;7.240;2023-03-22T00:25:20;9.63;;;6.70;;
23258;SDS011;11798;51.528;7.240;2023-03-22T00:27:46;7.60;;;5.90;;
23258;SDS011;11798;51.528;7.240;2023-03-22T00:30:12;11.20;;;6.13;;
23258;SDS011;11798;51.528;7.240;2023-03-22T00:32:38;8.37;;;6.57;;
23258;SDS011;11798;51.528;7.240;2023-03-22T00:35:04;8.30;;;6.37;;
23258;SDS011;11798;51.528;7.240;2023-03-22T00:37:30;8.93;;;6.00;;
23258;SDS011;11798;51.528;7.240;2023-03-22T00:40:01;10.07;;;6.27;;
23258;SDS011;11798;51.528;7.240;2023-03-22T00:42:28;9.87;;;6.77;;
23258;SDS011;11798;51.528;7.240;2023-03-22T00:44:54;11.83;;;7.70;;
23258;SDS011;11798;51.528;7.240;2023-03-22T00:47:20;11.07;;;6.30;;
23258;SDS011;11798;51.528;7.240;2023-03-22T00:49:47;10.03;;;6.23;;
23258;SDS011;11798;51.528;7.240;2023-03-22T00:52:13;11.63;;;7.37;;
23258;SDS011;11798;51.528;7.240;2023-03-22T00:54:39;11.43;;;6.77;;
23258;SDS011;11798;51.528;7.240;2023-03-22T00:57:05;9.03;;;6.87;;
23258;SDS011;11798;51.528;7.240;2023-03-22T00:59:30;10.43;;;7.10;;
23258;SDS011;11798;51.528;7.240;2023-03-22T01:01:56;10.33;;;7.40;;
23258;SDS011;11798;51.528;7.240;2023-03-22T01:04:22;13.43;;;7.20;;
23258;SDS011;11798;51.528;7.240;2023-03-22T01:06:50;15.27;;;7.80;;
23258;SDS011;11798;51.528;7.240;2023-03-22T01:09:23;10.40;;;7.20;;
23258;SDS011;11798;51.528;7.240;2023-03-22T01:11:52;11.00;;;7.33;;
23258;SDS011;11798;51.528;7.240;2023-03-22T01:14:18;9.30;;;6.43;;
23258;SDS011;11798;51.528;7.240;2023-03-22T01:16:43;11.03;;;6.87;;
23258;SDS011;11798;51.528;7.240;2023-03-22T01:19:09;11.03;;;7.63;;
23258;SDS011;11798;51.528;7.240;2023-03-22T01:21:35;9.77;;;7.37;;
23258;SDS011;11798;51.528;7.240;2023-03-22T01:24:00;10.93;;;7.13;;
23258;SDS011;11798;51.528;7.240;2023-03-22T01:26:26;10.83;;;7.80;;
23258;SDS011;11798;51.528;7.240;2023-03-22T01:28:52;12.80;;;8.33;;
23258;SDS011;11798;51.528;7.240;2023-03-22T01:31:17;14.10;;;8.13;;
23258;SDS011;11798;51.528;7.240;2023-03-22T01:33:43;12.13;;;7.13;;
23258;SDS011;11798;51.528;7.240;2023-03-22T01:36:08;10.77;;;8.17;;
23258;SDS011;11798;51.528;7.240;2023-03-22T01:38:35;13.47;;;8.17;;
23258;SDS011;11798;51.528;7.240;2023-03-22T01:41:00;11.57;;;8.20;;
23258;SDS011;11798;51.528;7.240;2023-03-22T01:43:26;13.20;;;7.83;;
23258;SDS011;11798;51.528;7.240;2023-03-22T01:45:52;13.43;;;8.20;;
23258;SDS011;11798;51.528;7.240;2023-03-22T01:48:40;13.43;;;8.40;;
23258;SDS011;11798;51.528;7.240;2023-03-22T01:51:14;13.83;;;8.03;;
23258;SDS011;11798;51.528;7.240;2023-03-22T01:53:53;11.03;;;8.20;;
23258;SDS011;11798;51.528;7.240;2023-03-22T01:56:22;11.07;;;7.93;;
23258;SDS011;11798;51.528;7.240;2023-03-22T01:58:50;13.30;;;8.50;;
23258;SDS011;11798;51.528;7.240;2023-03-22T02:01:19;11.83;;;8.70;;
23258;SDS011;11798;51.528;7.240;2023-03-22T02:03:47;11.67;;;8.30;;
23258;SDS011;11798;51.528;7.240;2023-03-22T02:06:16;11.63;;;8.47;;
23258;SDS011;11798;51.528;7.240;2023-03-22T02:08:43;14.20;;;8.80;;
23258;SDS011;11798;51.528;7.240;2023-03-22T02:11:11;13.30;;;9.27;;
23258;SDS011;11798;51.528;7.240;2023-03-22T02:27:22;15.10;;;9.33;;
23258;SDS011;11798;51.528;7.240;2023-03-22T02:35:27;11.37;;;8.20;;
23258;SDS011;11798;51.528;7.240;2023-03-22T02:46:24;13.43;;;9.57;;
23258;SDS011;11798;51.528;7.240;2023-03-22T02:51:40;14.83;;;9.60;;
23258;SDS011;11798;51.528;7.240;2023-03-22T02:57:10;14.77;;;10.10;;
23258;SDS011;11798;51.528;7.240;2023-03-22T03:00:01;12.80;;;9.33;;
23258;SDS011;11798;51.528;7.240;2023-03-22T03:02:42;15.47;;;9.23;;
23258;SDS011;11798;51.528;7.240;2023-03-22T03:05:18;16.10;;;10.13;;
23258;SDS011;11798;51.528;7.240;2023-03-22T03:07:53;13.20;;;9.40;;
23258;SDS011;11798;51.528;7.240;2023-03-22T03:10:22;14.60;;;9.10;;
23258;SDS011;11798;51.528;7.240;2023-03-22T03:12:48;13.43;;;9.43;;
23258;SDS011;11798;51.528;7.240;2023-03-22T03:15:15;18.03;;;10.40;;
23258;SDS011;11798;51.528;7.240;2023-03-22T03:23:29;13.93;;;8.77;;
23258;SDS011;11798;51.528;7.240;2023-03-22T03:33:56;11.90;;;9.30;;
23258;SDS011;11798;51.528;7.240;2023-03-22T03:36:31;16.30;;;9.30;;
23258;SDS011;11798;51.528;7.240;2023-03-22T03:38:59;12.13;;;9.40;;
23258;SDS011;11798;51.528;7.240;2023-03-22T03:41:27;13.63;;;9.90;;
23258;SDS011;11798;51.528;7.240;2023-03-22T03:43:54;16.63;;;9.40;;
23258;SDS011;11798;51.528;7.240;2023-03-22T03:46:22;15.33;;;10.63;;
23258;SDS011;11798;51.528;7.240;2023-03-22T03:48:48;15.83;;;9.30;;
23258;SDS011;11798;51.528;7.240;2023-03-22T03:51:16;15.77;;;10.60;;
23258;SDS011;11798;51.528;7.240;2023-03-22T03:53:42;15.67;;;10.03;;
23258;SDS011;11798;51.528;7.240;2023-03-22T03:56:08;15.23;;;9.30;;
23258;SDS011;11798;51.528;7.240;2023-03-22T03:58:33;12.90;;;9.93;;
23258;SDS011;11798;51.528;7.240;2023-03-22T04:00:59;14.87;;;10.57;;
23258;SDS011;11798;51.528;7.240;2023-03-22T04:03:25;16.10;;;10.13;;
23258;SDS011;11798;51.528;7.240;2023-03-22T04:05:50;13.90;;;9.67;;
23258;SDS011;11798;51.528;7.240;2023-03-22T04:08:16;16.20;;;10.57;;
23258;SDS011;11798;51.528;7.240;2023-03-22T04:10:42;16.73;;;9.50;;
23258;SDS011;11798;51.528;7.240;2023-03-22T04:13:08;14.13;;;9.33;;
23258;SDS011;11798;51.528;7.240;2023-03-22T04:15:34;16.40;;;9.90;;
23258;SDS011;11798;51.528;7.240;2023-03-22T04:17:59;14.23;;;9.27;;
23258;SDS011;11798;51.528;7.240;2023-03-22T04:20:25;15.53;;;9.30;;
23258;SDS011;11798;51.528;7.240;2023-03-22T04:22:51;14.13;;;9.37;;
23258;SDS011;11798;51.528;7.240;2023-03-22T04:25:17;11.43;;;8.53;;
23258;SDS011;11798;51.528;7.240;2023-03-22T04:27:43;16.33;;;9.47;;
23258;SDS011;11798;51.528;7.240;2023-03-22T04:30:14;13.40;;;8.63;;
23258;SDS011;11798;51.528;7.240;2023-03-22T04:32:47;16.47;;;9.13;;
23258;SDS011;11798;51.528;7.240;2023-03-22T04:35:14;16.30;;;10.03;;
23258;SDS011;11798;51.528;7.240;2023-03-22T04:37:40;14.97;;;8.50;;
23258;SDS011;11798;51.528;7.240;2023-03-22T04:40:07;12.70;;;8.03;;
23258;SDS011;11798;51.528;7.240;2023-03-22T04:42:33;10.53;;;8.60;;
23258;SDS011;11798;51.528;7.240;2023-03-22T04:45:00;15.80;;;8.63;;
23258;SDS011;11798;51.528;7.240;2023-03-22T04:47:28;12.77;;;8.23;;
23258;SDS011;11798;51.528;7.240;2023-03-22T04:49:53;12.00;;;8.40;;
23258;SDS011;11798;51.528;7.240;2023-03-22T04:52:19;13.73;;;7.97;;
23258;SDS011;11798;51.528;7.240;2023-03-22T04:54:45;12.17;;;8.23;;
23258;SDS011;11798;51.528;7.240;2023-03-22T04:57:10;11.60;;;7.93;;
23258;SDS011;11798;51.528;7.240;2023-03-22T04:59:36;13.03;;;8.57;;
23258;SDS011;11798;51.528;7.240;2023-03-22T05:02:02;13.70;;;8.23;;
23258;SDS011;11798;51.528;7.240;2023-03-22T05:04:28;15.50;;;9.07;;
23258;SDS011;11798;51.528;7.240;2023-03-22T05:06:53;16.60;;;8.87;;
23258;SDS011;11798;51.528;7.240;2023-03-22T05:09:19;13.00;;;8.07;;
23258;SDS011;11798;51.528;7.240;2023-03-22T05:11:45;14.63;;;8.13;;
23258;SDS011;11798;51.528;7.240;2023-03-22T05:14:11;13.20;;;7.97;;
23258;SDS011;11798;51.528;7.240;2023-03-22T05:16:36;13.67;;;9.20;;
23258;SDS011;11798;51.528;7.240;2023-03-22T05:19:06;17.10;;;9.00;;
23258;SDS011;11798;51.528;7.240;2023-03-22T05:21:38;16.33;;;8.57;;
23258;SDS011;11798;51.528;7.240;2023-03-22T05:24:05;11.10;;;7.50;;
23258;SDS011;11798;51.528;7.240;2023-03-22T05:26:32;12.80;;;7.33;;
23258;SDS011;11798;51.528;7.240;2023-03-22T05:28:58;13.23;;;8.13;;
23258;SDS011;11798;51.528;7.240;2023-03-22T05:31:24;13.33;;;8.30;;
23258;SDS011;11798;51.528;7.240;2023-03-22T05:33:52;12.77;;;9.00;;
23258;SDS011;11798;51.528;7.240;2023-03-22T05:36:19;13.03;;;8.10;;
23258;SDS011;11798;51.528;7.240;2023-03-22T05:38:46;14.87;;;7.93;;
23258;SDS011;11798;51.528;7.240;2023-03-22T05:41:13;11.30;;;7.87;;
23258;SDS011;11798;51.528;7.240;2023-03-22T05:43:39;14.33;;;7.23;;
23258;SDS011;11798;51.528;7.240;2023-03-22T05:46:08;13.60;;;7.63;;
23258;SDS011;11798;51.528;7.240;2023-03-22T05:48:35;9.23;;;6.50;;
23258;SDS011;11798;51.528;7.240;2023-03-22T05:51:04;11.97;;;7.23;;
23258;SDS011;11798;51.528;7.240;2023-03-22T05:53:37;16.70;;;7.93;;
23258;SDS011;11798;51.528;7.240;2023-03-22T05:56:03;12.20;;;7.97;;
23258;SDS011;11798;51.528;7.240;2023-03-22T05:58:29;9.93;;;6.40;;
23258;SDS011;11798;51.528;7.240;2023-03-22T06:00:56;10.93;;;7.13;;
23258;SDS011;11798;51.528;7.240;2023-03-22T06:03:25;14.93;;;7.37;;
23258;SDS011;11798;51.528;7.240;2023-03-22T06:05:52;8.53;;;6.13;;
23258;SDS011;11798;51.528;7.240;2023-03-22T06:08:18;12.10;;;6.90;;
23258;SDS011;11798;51.528;7.240;2023-03-22T06:10:49;11.90;;;5.77;;
23258;SDS011;11798;51.528;7.240;2023-03-22T06:13:16;11.97;;;6.33;;
23258;SDS011;11798;51.528;7.240;2023-03-22T06:15:42;11.70;;;6.00;;
23258;SDS011;11798;51.528;7.240;2023-03-22T06:18:08;11.67;;;5.83;;
23258;SDS011;11798;51.528;7.240;2023-03-22T06:20:34;12.90;;;6.70;;
23258;SDS011;11798;51.528;7.240;2023-03-22T06:23:00;10.03;;;6.53;;
23258;SDS011;11798;51.528;7.240;2023-03-22T06:25:26;12.20;;;6.13;;
23258;SDS011;11798;51.528;7.240;2023-03-22T06:27:51;10.43;;;5.83;;
23258;SDS011;11798;51.528;7.240;2023-03-22T06:30:17;9.07;;;6.10;;
23258;SDS011;11798;51.528;7.240;2023-03-22T06:32:43;8.97;;;6.00;;
23258;SDS011;11798;51.528;7.240;2023-03-22T06:35:09;12.53;;;5.90;;
23258;SDS011;11798;51.528;7.240;2023-03-22T06:37:34;9.90;;;5.77;;
23258;SDS011;11798;51.528;7.240;2023-03-22T06:40:00;6.60;;;5.10;;
23258;SDS011;11798;51.528;7.240;2023-03-22T06:42:26;9.40;;;5.33;;
23258;SDS011;11798;51.528;7.240;2023-03-22T06:44:54;9.23;;;5.40;;
23258;SDS011;11798;51.528;7.240;2023-03-22T06:47:20;7.27;;;5.13;;
23258;SDS011;11798;51.528;7.240;2023-03-22T06:49:46;11.80;;;5.30;;
23258;SDS011;11798;51.528;7.240;2023-03-22T06:52:12;8.60;;;4.50;;
23258;SDS011;11798;51.528;7.240;2023-03-22T06:54:37;9.50;;;5.23;;
23258;SDS011;11798;51.528;7.240;2023-03-22T06:57:03;8.07;;;4.53;;
23258;SDS011;11798;51.528;7.240;2023-03-22T06:59:29;8.17;;;4.83;;
23258;SDS011;11798;51.528;7.240;2023-03-22T07:01:54;11.03;;;4.90;;
23258;SDS011;11798;51.528;7.240;2023-03-22T07:04:20;8.17;;;4.10;;
23258;SDS011;11798;51.528;7.240;2023-03-22T07:06:46;9.40;;;4.40;;
23258;SDS011;11798;51.528;7.240;2023-03-22T07:09:11;7.40;;;3.83;;
23258;SDS011;11798;51.528;7.240;2023-03-22T07:11:37;7.70;;;4.47;;
23258;SDS011;11798;51.528;7.240;2023-03-22T07:14:03;10.50;;;4.67;;
23258;SDS011;11798;51.528;7.240;2023-03-22T07:16:28;11.00;;;4.20;;
23258;SDS011;11798;51.528;7.240;2023-03-22T07:18:54;9.80;;;4.50;;
23258;SDS011;11798;51.528;7.240;2023-03-22T07:21:21;10.07;;;4.17;;
23258;SDS011;11798;51.528;7.240;2023-03-22T07:23:46;9.87;;;4.20;;
23258;SDS011;11798;51.528;7.240;2023-03-22T07:26:12;7.23;;;4.10;;
23258;SDS011;11798;51.528;7.240;2023-03-22T07:28:38;10.47;;;4.07;;
23258;SDS011;11798;51.528;7.240;2023-03-22T07:31:06;7.73;;;3.50;;
23258;SDS011;11798;51.528;7.240;2023-03-22T07:33:35;7.80;;;3.53;;
23258;SDS011;11798;51.528;7.240;2023-03-22T07:36:05;7.60;;;3.30;;
23258;SDS011;11798;51.528;7.240;2023-03-22T07:38:32;6.80;;;3.27;;
23258;SDS011;11798;51.528;7.240;2023-03-22T07:40:58;6.57;;;3.20;;
23258;SDS011;11798;51.528;7.240;2023-03-22T07:43:24;6.30;;;2.87;;
23258;SDS011;11798;51.528;7.240;2023-03-22T07:45:50;7.60;;;3.50;;
23258;SDS011;11798;51.528;7.240;2023-03-22T07:48:16;8.67;;;3.40;;
23258;SDS011;11798;51.528;7.240;2023-03-22T07:50:43;6.80;;;2.90;;
23258;SDS011;11798;51.528;7.240;2023-03-22T07:53:09;6.53;;;3.27;;
23258;SDS011;11798;51.528;7.240;2023-03-22T07:55:36;8.27;;;3.20;;
23258;SDS011;11798;51.528;7.240;2023-03-22T07:58:02;9.33;;;3.30;;
23258;SDS011;11798;51.528;7.240;2023-03-22T08:00:28;10.37;;;3.47;;
23258;SDS011;11798;51.528;7.240;2023-03-22T08:02:54;6.30;;;2.73;;
23258;SDS011;11798;51.528;7.240;2023-03-22T08:05:20;6.80;;;2.97;;
23258;SDS011;11798;51.528;7.240;2023-03-22T08:07:46;4.97;;;2.60;;
23258;SDS011;11798;51.528;7.240;2023-03-22T08:10:13;7.20;;;2.60;;
23258;SDS011;11798;51.528;7.240;2023-03-22T08:12:39;3.00;;;2.30;;
23258;SDS011;11798;51.528;7.240;2023-03-22T08:15:05;8.73;;;2.73;;
23258;SDS011;11798;51.528;7.240;2023-03-22T08:17:32;6.77;;;2.97;;
23258;SDS011;11798;51.528;7.240;2023-03-22T08:19:58;10.40;;;3.27;;
23258;SDS011;11798;51.528;7.240;2023-03-22T08:22:23;7.67;;;3.67;;
23258;SDS011;11798;51.528;7.240;2023-03-22T08:24:53;8.17;;;2.90;;
23258;SDS011;11798;51.528;7.240;2023-03-22T08:27:19;7.30;;;2.90;;
23258;SDS011;11798;51.528;7.240;2023-03-22T08:29:45;9.27;;;2.40;;
23258;SDS011;11798;51.528;7.240;2023-03-22T08:32:12;7.87;;;3.00;;
23258;SDS011;11798;51.528;7.240;2023-03-22T08:34:39;8.70;;;2.80;;
23258;SDS011;11798;51.528;7.240;2023-03-22T08:37:06;10.30;;;2.50;;
23258;SDS011;11798;51.528;7.240;2023-03-22T08:39:33;6.50;;;3.00;;
23258;SDS011;11798;51.528;7.240;2023-03-22T08:41:59;6.57;;;2.67;;
23258;SDS011;11798;51.528;7.240;2023-03-22T08:44:25;9.33;;;3.50;;
23258;SDS011;11798;51.528;7.240;2023-03-22T08:46:51;6.80;;;2.40;;
23258;SDS011;11798;51.528;7.240;2023-03-22T08:49:17;9.93;;;3.10;;
23258;SDS011;11798;51.528;7.240;2023-03-22T08:51:42;7.50;;;2.70;;
23258;SDS011;11798;51.528;7.240;2023-03-22T08:54:08;9.47;;;2.93;;
23258;SDS011;11798;51.528;7.240;2023-03-22T08:56:35;7.80;;;2.83;;
23258;SDS011;11798;51.528;7.240;2023-03-22T08:59:02;6.33;;;2.60;;
23258;SDS011;11798;51.528;7.240;2023-03-22T09:01:32;5.67;;;2.33;;
23258;SDS011;11798;51.528;7.240;2023-03-22T09:03:58;6.93;;;2.33;;
23258;SDS011;11798;51.528;7.240;2023-03-22T09:06:24;9.17;;;3.10;;
23258;SDS011;11798;51.528;7.240;2023-03-22T09:08:50;6.87;;;2.33;;
23258;SDS011;11798;51.528;7.240;2023-03-22T09:11:17;7.07;;;2.17;;
23258;SDS011;11798;51.528;7.240;2023-03-22T09:13:43;6.43;;;2.10;;
23258;SDS011;11798;51.528;7.240;2023-03-22T09:16:09;5.33;;;2.00;;
23258;SDS011;11798;51.528;7.240;2023-03-22T09:18:38;3.23;;;1.83;;
23258;SDS011;11798;51.528;7.240;2023-03-22T09:21:04;6.63;;;1.83;;
23258;SDS011;11798;51.528;7.240;2023-03-22T09:23:31;3.57;;;1.37;;
23258;SDS011;11798;51.528;7.240;2023-03-22T09:26:02;5.17;;;1.40;;
23258;SDS011;11798;51.528;7.240;2023-03-22T09:28:29;4.87;;;1.70;;
23258;SDS011;11798;51.528;7.240;2023-03-22T09:31:02;5.70;;;1.50;;
23258;SDS011;11798;51.528;7.240;2023-03-22T09:33:28;4.57;;;1.27;;
23258;SDS011;11798;51.528;7.240;2023-03-22T09:35:54;6.33;;;1.73;;
23258;SDS011;11798;51.528;7.240;2023-03-22T09:38:21;6.23;;;1.23;;
23258;SDS011;11798;51.528;7.240;2023-03-22T09:41:06;4.93;;;1.60;;
23258;SDS011;11798;51.528;7.240;2023-03-22T09:43:38;3.70;;;1.33;;
23258;SDS011;11798;51.528;7.240;2023-03-22T09:46:28;4.20;;;1.67;;
23258;SDS011;11798;51.528;7.240;2023-03-22T09:48:56;6.63;;;1.93;;
23258;SDS011;11798;51.528;7.240;2023-03-22T09:51:31;5.83;;;2.17;;
23258;SDS011;11798;51.528;7.240;2023-03-22T09:54:02;8.83;;;1.60;;
23258;SDS011;11798;51.528;7.240;2023-03-22T09:56:29;4.97;;;1.70;;
23258;SDS011;11798;51.528;7.240;2023-03-22T09:59:21;6.47;;;1.40;;
23258;SDS011;11798;51.528;7.240;2023-03-22T10:01:58;5.63;;;1.60;;
23258;SDS011;11798;51.528;7.240;2023-03-22T10:07:04;4.10;;;1.60;;
23258;SDS011;11798;51.528;7.240;2023-03-22T10:14:59;5.40;;;1.30;;
23258;SDS011;11798;51.528;7.240;2023-03-22T10:17:41;4.30;;;1.60;;
23258;SDS011;11798;51.528;7.240;2023-03-22T10:20:27;4.77;;;1.77;;
23258;SDS011;11798;51.528;7.240;2023-03-22T10:23:05;4.00;;;1.50;;
23258;SDS011;11798;51.528;7.240;2023-03-22T10:25:40;7.53;;;1.57;;
23258;SDS011;11798;51.528;7.240;2023-03-22T10:28:40;3.47;;;1.60;;
23258;SDS011;11798;51.528;7.240;2023-03-22T10:31:03;4.80;;;1.70;;
23258;SDS011;11798;51.528;7.240;2023-03-22T10:33:33;5.00;;;1.70;;
23258;SDS011;11798;51.528;7.240;2023-03-22T10:36:04;4.47;;;2.00;;
23258;SDS011;11798;51.528;7.240;2023-03-22T10:38:33;7.23;;;1.90;;
23258;SDS011;11798;51.528;7.240;2023-03-22T10:41:05;4.63;;;1.90;;
23258;SDS011;11798;51.528;7.240;2023-03-22T10:43:34;6.80;;;1.73;;
23258;SDS011;11798;51.528;7.240;2023-03-22T10:46:03;7.73;;;1.60;;
23258;SDS011;11798;51.528;7.240;2023-03-22T10:48:36;5.63;;;1.80;;
23258;SDS011;11798;51.528;7.240;2023-03-22T10:51:10;5.97;;;1.60;;
23258;SDS011;11798;51.528;7.240;2023-03-22T10:53:46;4.53;;;1.67;;
23258;SDS011;11798;51.528;7.240;2023-03-22T10:56:15;5.07;;;1.70;;
23258;SDS011;11798;51.528;7.240;2023-03-22T10:58:44;3.23;;;1.40;;
23258;SDS011;11798;51.528;7.240;2023-03-22T11:01:11;6.13;;;1.70;;
23258;SDS011;11798;51.528;7.240;2023-03-22T11:08:56;3.50;;;1.40;;
23258;SDS011;11798;51.528;7.240;2023-03-22T11:11:37;5.57;;;2.03;;
23258;SDS011;11798;51.528;7.240;2023-03-22T11:17:00;5.87;;;1.77;;
23258;SDS011;11798;51.528;7.240;2023-03-22T11:19:38;2.73;;;1.60;;
23258;SDS011;11798;51.528;7.240;2023-03-22T11:22:07;6.43;;;1.60;;
23258;SDS011;11798;51.528;7.240;2023-03-22T11:24:50;5.70;;;1.97;;
23258;SDS011;11798;51.528;7.240;2023-03-22T11:27:30;6.27;;;1.50;;
23258;SDS011;11798;51.528;7.240;2023-03-22T11:29:58;4.33;;;1.80;;
23258;SDS011;11798;51.528;7.240;2023-03-22T11:32:36;5.60;;;1.57;;
23258;SDS011;11798;51.528;7.240;2023-03-22T11:37:39;7.50;;;2.00;;
23258;SDS011;11798;51.528;7.240;2023-03-22T11:40:16;4.43;;;1.77;;
23258;SDS011;11798;51.528;7.240;2023-03-22T11:42:44;4.03;;;1.67;;
23258;SDS011;11798;51.528;7.240;2023-03-22T11:45:15;7.80;;;2.23;;
23258;SDS011;11798;51.528;7.240;2023-03-22T11:47:45;5.90;;;2.30;;
23258;SDS011;11798;51.528;7.240;2023-03-22T11:50:28;7.00;;;1.93;;
23258;SDS011;11798;51.528;7.240;2023-03-22T11:52:55;6.37;;;1.80;;
23258;SDS011;11798;51.528;7.240;2023-03-22T11:55:21;5.03;;;1.77;;
23258;SDS011;11798;51.528;7.240;2023-03-22T11:57:48;4.17;;;2.00;;
23258;SDS011;11798;51.528;7.240;2023-03-22T12:10:41;6.30;;;1.80;;
23258;SDS011;11798;51.528;7.240;2023-03-22T12:13:16;3.17;;;1.80;;
23258;SDS011;11798;51.528;7.240;2023-03-22T12:15:51;5.70;;;2.10;;
23258;SDS011;11798;51.528;7.240;2023-03-22T12:18:31;5.67;;;2.23;;
23258;SDS011;11798;51.528;7.240;2023-03-22T12:21:21;4.93;;;1.73;;
23258;SDS011;11798;51.528;7.240;2023-03-22T12:23:47;4.40;;;1.90;;
23258;SDS011;11798;51.528;7.240;2023-03-22T12:26:17;3.60;;;1.77;;
23258;SDS011;11798;51.528;7.240;2023-03-22T12:28:53;3.47;;;1.53;;
23258;SDS011;11798;51.528;7.240;2023-03-22T12:31:26;2.37;;;1.30;;
23258;SDS011;11798;51.528;7.240;2023-03-22T12:33:57;5.37;;;2.00;;
23258;SDS011;11798;51.528;7.240;2023-03-22T12:36:38;4.97;;;1.90;;
23258;SDS011;11798;51.528;7.240;2023-03-22T12:39:07;2.27;;;1.30;;
23258;SDS011;11798;51.528;7.240;2023-03-22T12:41:44;4.53;;;1.40;;
23258;SDS011;11798;51.528;7.240;2023-03-22T12:44:17;5.23;;;1.67;;
23258;SDS011;11798;51.528;7.240;2023-03-22T12:46:54;5.37;;;2.10;;
23258;SDS011;11798;51.528;7.240;2023-03-22T12:49:26;2.67;;;1.67;;
23258;SDS011;11798;51.528;7.240;2023-03-22T12:52:14;5.50;;;1.43;;
23258;SDS011;11798;51.528;7.240;2023-03-22T12:54:40;3.93;;;1.60;;
23258;SDS011;11798;51.528;7.240;2023-03-22T12:57:07;4.87;;;1.80;;
23258;SDS011;11798;51.528;7.240;2023-03-22T12:59:33;4.67;;;1.90;;
23258;SDS011;11798;51.528;7.240;2023-03-22T13:17:33;3.80;;;1.50;;
23258;SDS011;11798;51.528;7.240;2023-03-22T13:32:42;3.23;;;1.40;;
23258;SDS011;11798;51.528;7.240;2023-03-22T13:37:52;5.13;;;1.67;;
23258;SDS011;11798;51.528;7.240;2023-03-22T13:40:26;4.47;;;1.60;;
23258;SDS011;11798;51.528;7.240;2023-03-22T13:59:11;4.90;;;1.70;;
23258;SDS011;11798;51.528;7.240;2023-03-22T14:01:47;4.67;;;2.00;;
23258;SDS011;11798;51.528;7.240;2023-03-22T14:04:24;4.53;;;1.73;;
23258;SDS011;11798;51.528;7.240;2023-03-22T14:10:13;7.17;;;2.10;;
23258;SDS011;11798;51.528;7.240;2023-03-22T14:15:31;6.93;;;2.17;;
23258;SDS011;11798;51.528;7.240;2023-03-22T14:18:11;4.40;;;1.67;;
23258;SDS011;11798;51.528;7.240;2023-03-22T14:20:49;4.97;;;1.77;;
23258;SDS011;11798;51.528;7.240;2023-03-22T14:23:29;5.63;;;1.83;;
23258;SDS011;11798;51.528;7.240;2023-03-22T14:26:06;4.20;;;1.90;;
23258;SDS011;11798;51.528;7.240;2023-03-22T14:28:36;4.10;;;1.87;;
23258;SDS011;11798;51.528;7.240;2023-03-22T14:31:24;5.50;;;1.60;;
23258;SDS011;11798;51.528;7.240;2023-03-22T14:33:55;7.43;;;1.83;;
23258;SDS011;11798;51.528;7.240;2023-03-22T14:36:27;6.47;;;1.83;;
23258;SDS011;11798;51.528;7.240;2023-03-22T14:39:02;8.17;;;1.87;;
23258;SDS011;11798;51.528;7.240;2023-03-22T14:41:35;4.97;;;1.67;;
23258;SDS011;11798;51.528;7.240;2023-03-22T14:44:01;4.93;;;1.60;;
23258;SDS011;11798;51.528;7.240;2023-03-22T14:46:31;3.47;;;1.87;;
23258;SDS011;11798;51.528;7.240;2023-03-22T14:49:02;5.30;;;1.97;;
23258;SDS011;11798;51.528;7.240;2023-03-22T14:51:36;4.03;;;1.83;;
23258;SDS011;11798;51.528;7.240;2023-03-22T14:54:22;4.13;;;1.77;;
23258;SDS011;11798;51.528;7.240;2023-03-22T14:56:52;3.47;;;1.73;;
23258;SDS011;11798;51.528;7.240;2023-03-22T14:59:25;4.93;;;1.83;;
23258;SDS011;11798;51.528;7.240;2023-03-22T15:01:52;5.50;;;1.90;;
23258;SDS011;11798;51.528;7.240;2023-03-22T15:04:21;6.07;;;1.70;;
23258;SDS011;11798;51.528;7.240;2023-03-22T15:06:50;6.57;;;1.87;;
23258;SDS011;11798;51.528;7.240;2023-03-22T15:09:20;4.63;;;2.03;;
23258;SDS011;11798;51.528;7.240;2023-03-22T15:11:48;7.37;;;2.27;;
23258;SDS011;11798;51.528;7.240;2023-03-22T15:14:14;5.47;;;2.07;;
23258;SDS011;11798;51.528;7.240;2023-03-22T15:16:41;5.17;;;1.83;;
23258;SDS011;11798;51.528;7.240;2023-03-22T15:19:14;6.57;;;1.80;;
23258;SDS011;11798;51.528;7.240;2023-03-22T15:21:42;4.10;;;1.80;;
23258;SDS011;11798;51.528;7.240;2023-03-22T15:26:39;5.50;;;2.20;;
23258;SDS011;11798;51.528;7.240;2023-03-22T15:29:06;6.47;;;1.77;;
23258;SDS011;11798;51.528;7.240;2023-03-22T15:31:38;5.23;;;1.80;;
23258;SDS011;11798;51.528;7.240;2023-03-22T15:34:18;5.97;;;1.73;;
23258;SDS011;11798;51.528;7.240;2023-03-22T15:36:47;5.10;;;2.00;;
23258;SDS011;11798;51.528;7.240;2023-03-22T15:39:21;5.50;;;1.60;;
23258;SDS011;11798;51.528;7.240;2023-03-22T15:42:32;4.77;;;1.97;;
23258;SDS011;11798;51.528;7.240;2023-03-22T15:44:47;5.97;;;2.00;;
23258;SDS011;11798;51.528;7.240;2023-03-22T15:47:17;5.10;;;1.90;;
23258;SDS011;11798;51.528;7.240;2023-03-22T15:49:46;5.60;;;1.80;;
23258;SDS011;11798;51.528;7.240;2023-03-22T15:57:21;2.90;;;1.50;;
23258;SDS011;11798;51.528;7.240;2023-03-22T16:00:36;3.13;;;1.53;;
23258;SDS011;11798;51.528;7.240;2023-03-22T16:02:36;4.33;;;1.90;;
23258;SDS011;11798;51.528;7.240;2023-03-22T16:05:21;4.97;;;1.67;;
23258;SDS011;11798;51.528;7.240;2023-03-22T16:07:48;3.60;;;1.70;;
23258;SDS011;11798;51.528;7.240;2023-03-22T16:10:18;7.57;;;1.90;;
23258;SDS011;11798;51.528;7.240;2023-03-22T16:12:46;5.70;;;1.40;;
23258;SDS011;11798;51.528;7.240;2023-03-22T16:15:26;6.00;;;2.00;;
23258;SDS011;11798;51.528;7.240;2023-03-22T16:17:54;4.87;;;1.50;;
23258;SDS011;11798;51.528;7.240;2023-03-22T16:20:21;4.53;;;1.63;;
23258;SDS011;11798;51.528;7.240;2023-03-22T16:22:47;4.03;;;1.53;;
23258;SDS011;11798;51.528;7.240;2023-03-22T16:25:18;5.53;;;1.80;;
23258;SDS011;11798;51.528;7.240;2023-03-22T16:27:46;3.50;;;1.40;;
23258;SDS011;11798;51.528;7.240;2023-03-22T16:30:12;3.63;;;1.50;;
23258;SDS011;11798;51.528;7.240;2023-03-22T16:32:39;3.20;;;1.20;;
23258;SDS011;11798;51.528;7.240;2023-03-22T16:35:09;4.57;;;1.70;;
23258;SDS011;11798;51.528;7.240;2023-03-22T16:37:43;5.80;;;2.03;;
23258;SDS011;11798;51.528;7.240;2023-03-22T16:40:19;3.87;;;1.60;;
23258;SDS011;11798;51.528;7.240;2023-03-22T16:42:46;6.17;;;1.80;;
23258;SDS011;11798;51.528;7.240;2023-03-22T16:45:14;4.33;;;1.73;;
23258;SDS011;11798;51.528;7.240;2023-03-22T16:47:47;6.63;;;1.97;;
23258;SDS011;11798;51.528;7.240;2023-03-22T16:50:14;5.93;;;1.80;;
23258;SDS011;11798;51.528;7.240;2023-03-22T16:52:40;4.87;;;1.73;;
23258;SDS011;11798;51.528;7.240;2023-03-22T16:55:17;4.63;;;1.70;;
23258;SDS011;11798;51.528;7.240;2023-03-22T16:57:45;4.60;;;1.73;;
23258;SDS011;11798;51.528;7.240;2023-03-22T17:00:12;5.60;;;1.63;;
23258;SDS011;11798;51.528;7.240;2023-03-22T17:02:39;4.47;;;1.53;;
23258;SDS011;11798;51.528;7.240;2023-03-22T17:05:05;3.57;;;1.60;;
23258;SDS011;11798;51.528;7.240;2023-03-22T17:07:32;4.17;;;1.63;;
23258;SDS011;11798;51.528;7.240;2023-03-22T17:09:59;2.93;;;1.50;;
23258;SDS011;11798;51.528;7.240;2023-03-22T17:12:28;9.00;;;1.83;;